sensor_id;sensor_type;location;lat;lon;timestamp;P1;durP1;ratioP1;P2;durP2;ratioP2
17253;SDS011;32542;52.832;13.816;2023-07-22T00:00:06;1.77;;;1.10;;
17253;SDS011;32542;52.832;13.816;2023-07-22T00:03:15;1.58;;;1.00;;
17253;SDS011;32542;52.832;13.816;2023-07-22T00:06:18;2.05;;;1.08;;
17253;SDS011;32542;52.832;13.816;2023-07-22T00:09:21;1.67;;;1.55;;
17253;SDS011;32542;52.832;13.816;2023-07-22T00:12:26;2.90;;;1.20;;
17253;SDS011;32542;52.832;13.816;2023-07-22T00:15:28;1.20;;;0.88;;
17253;SDS011;32542;52.832;13.816;2023-07-22T00:18:31;1.25;;;1.15;;
17253;SDS011;32542;52.832;13.816;2023-07-22T00:21:34;1.13;;;1.02;;
17253;SDS011;32542;52.832;13.816;2023-07-22T00:24:37;1.05;;;0.90;;
17253;SDS011;32542;52.832;13.816;2023-07-22T00:27:42;1.45;;;1.15;;
17253;SDS011;32542;52.832;13.816;2023-07-22T00:30:45;2.72;;;1.08;;
17253;SDS011;32542;52.832;13.816;2023-07-22T00:33:50;3.00;;;1.42;;
17253;SDS011;32542;52.832;13.816;2023-07-22T00:36:53;2.65;;;1.23;;
17253;SDS011;32542;52.832;13.816;2023-07-22T00:39:58;1.40;;;1.13;;
17253;SDS011;32542;52.832;13.816;2023-07-22T00:43:02;1.83;;;1.25;;
17253;SDS011;32542;52.832;13.816;2023-07-22T00:46:06;3.00;;;1.35;;
17253;SDS011;32542;52.832;13.816;2023-07-22T00:49:09;1.30;;;1.08;;
17253;SDS011;32542;52.832;13.816;2023-07-22T00:52:13;1.50;;;1.20;;
17253;SDS011;32542;52.832;13.816;2023-07-22T00:55:16;1.25;;;1.10;;
17253;SDS011;32542;52.832;13.816;2023-07-22T00:58:21;1.20;;;1.05;;
17253;SDS011;32542;52.832;13.816;2023-07-22T01:01:24;4.72;;;1.10;;
17253;SDS011;32542;52.832;13.816;2023-07-22T01:04:27;2.85;;;1.30;;
17253;SDS011;32542;52.832;13.816;2023-07-22T01:07:31;2.05;;;1.23;;
17253;SDS011;32542;52.832;13.816;2023-07-22T01:10:33;1.10;;;1.00;;
17253;SDS011;32542;52.832;13.816;2023-07-22T01:13:38;1.77;;;1.00;;
17253;SDS011;32542;52.832;13.816;2023-07-22T01:16:41;2.28;;;1.23;;
17253;SDS011;32542;52.832;13.816;2023-07-22T01:19:44;3.30;;;1.38;;
17253;SDS011;32542;52.832;13.816;2023-07-22T01:22:51;2.25;;;1.25;;
17253;SDS011;32542;52.832;13.816;2023-07-22T01:25:54;2.45;;;1.30;;
17253;SDS011;32542;52.832;13.816;2023-07-22T01:29:02;1.30;;;1.20;;
17253;SDS011;32542;52.832;13.816;2023-07-22T01:32:06;1.83;;;1.13;;
17253;SDS011;32542;52.832;13.816;2023-07-22T01:35:10;1.73;;;1.33;;
17253;SDS011;32542;52.832;13.816;2023-07-22T01:38:14;1.77;;;1.27;;
17253;SDS011;32542;52.832;13.816;2023-07-22T01:41:17;2.95;;;1.30;;
17253;SDS011;32542;52.832;13.816;2023-07-22T01:44:20;1.50;;;1.40;;
17253;SDS011;32542;52.832;13.816;2023-07-22T01:47:22;1.58;;;1.30;;
17253;SDS011;32542;52.832;13.816;2023-07-22T01:50:25;1.92;;;1.30;;
17253;SDS011;32542;52.832;13.816;2023-07-22T01:53:30;2.38;;;1.50;;
17253;SDS011;32542;52.832;13.816;2023-07-22T01:56:33;3.47;;;1.40;;
17253;SDS011;32542;52.832;13.816;2023-07-22T01:59:37;3.75;;;1.50;;
17253;SDS011;32542;52.832;13.816;2023-07-22T02:02:40;2.13;;;1.40;;
17253;SDS011;32542;52.832;13.816;2023-07-22T02:05:43;1.45;;;1.35;;
17253;SDS011;32542;52.832;13.816;2023-07-22T02:08:47;1.58;;;1.30;;
17253;SDS011;32542;52.832;13.816;2023-07-22T02:11:50;3.35;;;1.40;;
17253;SDS011;32542;52.832;13.816;2023-07-22T02:14:55;2.97;;;1.48;;
17253;SDS011;32542;52.832;13.816;2023-07-22T02:17:58;1.80;;;1.30;;
17253;SDS011;32542;52.832;13.816;2023-07-22T02:21:01;1.95;;;1.20;;
17253;SDS011;32542;52.832;13.816;2023-07-22T02:24:05;3.30;;;1.27;;
17253;SDS011;32542;52.832;13.816;2023-07-22T02:27:08;2.63;;;1.40;;
17253;SDS011;32542;52.832;13.816;2023-07-22T02:30:11;1.42;;;1.30;;
17253;SDS011;32542;52.832;13.816;2023-07-22T02:33:15;2.95;;;1.55;;
17253;SDS011;32542;52.832;13.816;2023-07-22T02:36:18;1.55;;;1.40;;
17253;SDS011;32542;52.832;13.816;2023-07-22T02:39:22;1.75;;;1.40;;
17253;SDS011;32542;52.832;13.816;2023-07-22T02:42:25;1.90;;;1.50;;
17253;SDS011;32542;52.832;13.816;2023-07-22T02:45:28;1.55;;;1.35;;
17253;SDS011;32542;52.832;13.816;2023-07-22T02:48:31;1.98;;;1.20;;
17253;SDS011;32542;52.832;13.816;2023-07-22T02:51:34;1.65;;;1.17;;
17253;SDS011;32542;52.832;13.816;2023-07-22T02:54:38;3.22;;;1.50;;
17253;SDS011;32542;52.832;13.816;2023-07-22T02:57:42;2.35;;;1.55;;
17253;SDS011;32542;52.832;13.816;2023-07-22T03:00:45;2.03;;;1.33;;
17253;SDS011;32542;52.832;13.816;2023-07-22T03:03:48;1.85;;;1.27;;
17253;SDS011;32542;52.832;13.816;2023-07-22T03:06:51;3.78;;;1.48;;
17253;SDS011;32542;52.832;13.816;2023-07-22T03:09:55;2.78;;;1.63;;
17253;SDS011;32542;52.832;13.816;2023-07-22T03:12:58;2.70;;;1.50;;
17253;SDS011;32542;52.832;13.816;2023-07-22T03:16:05;2.63;;;1.40;;
17253;SDS011;32542;52.832;13.816;2023-07-22T03:19:09;1.67;;;1.42;;
17253;SDS011;32542;52.832;13.816;2023-07-22T03:22:13;2.28;;;1.55;;
17253;SDS011;32542;52.832;13.816;2023-07-22T03:25:19;2.20;;;1.30;;
17253;SDS011;32542;52.832;13.816;2023-07-22T03:28:22;3.45;;;1.60;;
17253;SDS011;32542;52.832;13.816;2023-07-22T03:31:27;1.95;;;1.30;;
17253;SDS011;32542;52.832;13.816;2023-07-22T03:34:30;1.80;;;1.40;;
17253;SDS011;32542;52.832;13.816;2023-07-22T03:37:33;2.33;;;1.30;;
17253;SDS011;32542;52.832;13.816;2023-07-22T03:40:39;1.65;;;1.55;;
17253;SDS011;32542;52.832;13.816;2023-07-22T03:43:41;3.60;;;1.30;;
17253;SDS011;32542;52.832;13.816;2023-07-22T03:46:44;1.58;;;1.42;;
17253;SDS011;32542;52.832;13.816;2023-07-22T03:49:47;2.28;;;1.10;;
17253;SDS011;32542;52.832;13.816;2023-07-22T03:52:50;2.35;;;1.40;;
17253;SDS011;32542;52.832;13.816;2023-07-22T03:55:54;2.03;;;1.13;;
17253;SDS011;32542;52.832;13.816;2023-07-22T03:58:57;1.40;;;1.30;;
17253;SDS011;32542;52.832;13.816;2023-07-22T04:02:00;2.22;;;1.30;;
17253;SDS011;32542;52.832;13.816;2023-07-22T04:05:03;2.35;;;1.08;;
17253;SDS011;32542;52.832;13.816;2023-07-22T04:08:07;1.33;;;1.10;;
17253;SDS011;32542;52.832;13.816;2023-07-22T04:11:11;1.80;;;1.33;;
17253;SDS011;32542;52.832;13.816;2023-07-22T04:14:15;1.63;;;1.35;;
17253;SDS011;32542;52.832;13.816;2023-07-22T04:17:18;2.13;;;1.38;;
17253;SDS011;32542;52.832;13.816;2023-07-22T04:20:21;3.13;;;1.38;;
17253;SDS011;32542;52.832;13.816;2023-07-22T04:23:26;3.53;;;1.20;;
17253;SDS011;32542;52.832;13.816;2023-07-22T04:26:30;1.40;;;1.30;;
17253;SDS011;32542;52.832;13.816;2023-07-22T04:29:33;3.75;;;1.27;;
17253;SDS011;32542;52.832;13.816;2023-07-22T04:32:40;1.30;;;1.17;;
17253;SDS011;32542;52.832;13.816;2023-07-22T04:35:43;2.22;;;1.10;;
17253;SDS011;32542;52.832;13.816;2023-07-22T04:38:47;2.63;;;1.30;;
17253;SDS011;32542;52.832;13.816;2023-07-22T04:41:51;1.67;;;1.00;;
17253;SDS011;32542;52.832;13.816;2023-07-22T04:44:54;1.95;;;1.05;;
17253;SDS011;32542;52.832;13.816;2023-07-22T04:47:57;2.00;;;1.33;;
17253;SDS011;32542;52.832;13.816;2023-07-22T04:51:00;1.98;;;1.23;;
17253;SDS011;32542;52.832;13.816;2023-07-22T04:54:03;1.20;;;1.10;;
17253;SDS011;32542;52.832;13.816;2023-07-22T04:57:07;1.55;;;1.08;;
17253;SDS011;32542;52.832;13.816;2023-07-22T05:00:11;1.90;;;1.38;;
17253;SDS011;32542;52.832;13.816;2023-07-22T05:03:17;2.08;;;1.15;;
17253;SDS011;32542;52.832;13.816;2023-07-22T05:06:20;4.22;;;1.10;;
17253;SDS011;32542;52.832;13.816;2023-07-22T05:09:25;1.50;;;1.10;;
17253;SDS011;32542;52.832;13.816;2023-07-22T05:12:30;2.70;;;1.10;;
17253;SDS011;32542;52.832;13.816;2023-07-22T05:15:33;2.40;;;1.10;;
17253;SDS011;32542;52.832;13.816;2023-07-22T05:18:35;2.40;;;1.05;;
17253;SDS011;32542;52.832;13.816;2023-07-22T05:21:40;2.88;;;1.08;;
17253;SDS011;32542;52.832;13.816;2023-07-22T05:24:43;1.77;;;1.20;;
17253;SDS011;32542;52.832;13.816;2023-07-22T05:27:47;1.80;;;1.02;;
17253;SDS011;32542;52.832;13.816;2023-07-22T05:30:50;1.55;;;1.00;;
17253;SDS011;32542;52.832;13.816;2023-07-22T05:37:27;2.22;;;1.10;;
17253;SDS011;32542;52.832;13.816;2023-07-22T05:40:30;2.35;;;1.10;;
17253;SDS011;32542;52.832;13.816;2023-07-22T05:43:35;2.22;;;1.08;;
17253;SDS011;32542;52.832;13.816;2023-07-22T05:46:38;3.45;;;1.00;;
17253;SDS011;32542;52.832;13.816;2023-07-22T05:49:40;2.35;;;1.13;;
17253;SDS011;32542;52.832;13.816;2023-07-22T05:52:43;4.90;;;1.10;;
17253;SDS011;32542;52.832;13.816;2023-07-22T05:55:47;1.65;;;1.10;;
17253;SDS011;32542;52.832;13.816;2023-07-22T05:58:51;2.72;;;1.20;;
17253;SDS011;32542;52.832;13.816;2023-07-22T06:01:54;2.20;;;1.30;;
17253;SDS011;32542;52.832;13.816;2023-07-22T06:04:57;2.55;;;1.17;;
17253;SDS011;32542;52.832;13.816;2023-07-22T06:08:00;1.30;;;1.20;;
17253;SDS011;32542;52.832;13.816;2023-07-22T06:11:03;2.35;;;1.10;;
17253;SDS011;32542;52.832;13.816;2023-07-22T06:14:07;1.45;;;1.20;;
17253;SDS011;32542;52.832;13.816;2023-07-22T06:17:10;3.47;;;1.23;;
17253;SDS011;32542;52.832;13.816;2023-07-22T06:20:13;1.55;;;1.42;;
17253;SDS011;32542;52.832;13.816;2023-07-22T06:23:16;1.10;;;1.00;;
17253;SDS011;32542;52.832;13.816;2023-07-22T06:26:19;3.20;;;1.30;;
17253;SDS011;32542;52.832;13.816;2023-07-22T06:29:25;2.08;;;1.20;;
17253;SDS011;32542;52.832;13.816;2023-07-22T06:32:28;2.85;;;1.33;;
17253;SDS011;32542;52.832;13.816;2023-07-22T06:35:32;1.60;;;1.45;;
17253;SDS011;32542;52.832;13.816;2023-07-22T06:38:34;3.28;;;1.48;;
17253;SDS011;32542;52.832;13.816;2023-07-22T06:41:37;2.67;;;1.60;;
17253;SDS011;32542;52.832;13.816;2023-07-22T06:44:42;1.98;;;1.20;;
17253;SDS011;32542;52.832;13.816;2023-07-22T06:47:45;3.65;;;1.58;;
17253;SDS011;32542;52.832;13.816;2023-07-22T06:50:48;2.20;;;1.30;;
17253;SDS011;32542;52.832;13.816;2023-07-22T06:53:51;1.50;;;1.40;;
17253;SDS011;32542;52.832;13.816;2023-07-22T06:56:54;1.63;;;1.50;;
17253;SDS011;32542;52.832;13.816;2023-07-22T06:59:59;1.75;;;1.65;;
17253;SDS011;32542;52.832;13.816;2023-07-22T07:03:02;3.33;;;1.80;;
17253;SDS011;32542;52.832;13.816;2023-07-22T07:06:05;2.05;;;1.77;;
17253;SDS011;32542;52.832;13.816;2023-07-22T07:09:08;2.95;;;1.77;;
17253;SDS011;32542;52.832;13.816;2023-07-22T07:12:11;1.92;;;1.73;;
17253;SDS011;32542;52.832;13.816;2023-07-22T07:15:15;2.83;;;1.70;;
17253;SDS011;32542;52.832;13.816;2023-07-22T07:18:18;2.60;;;1.90;;
17253;SDS011;32542;52.832;13.816;2023-07-22T07:21:21;2.63;;;1.75;;
17253;SDS011;32542;52.832;13.816;2023-07-22T07:24:24;4.03;;;1.95;;
17253;SDS011;32542;52.832;13.816;2023-07-22T07:27:28;2.15;;;1.80;;
17253;SDS011;32542;52.832;13.816;2023-07-22T07:30:32;3.10;;;2.30;;
17253;SDS011;32542;52.832;13.816;2023-07-22T07:33:36;4.70;;;2.10;;
17253;SDS011;32542;52.832;13.816;2023-07-22T07:36:39;4.22;;;2.03;;
17253;SDS011;32542;52.832;13.816;2023-07-22T07:39:42;3.10;;;2.00;;
17253;SDS011;32542;52.832;13.816;2023-07-22T07:42:45;2.40;;;1.92;;
17253;SDS011;32542;52.832;13.816;2023-07-22T07:45:49;3.50;;;2.28;;
17253;SDS011;32542;52.832;13.816;2023-07-22T07:48:53;3.22;;;2.00;;
17253;SDS011;32542;52.832;13.816;2023-07-22T07:51:56;4.53;;;2.25;;
17253;SDS011;32542;52.832;13.816;2023-07-22T07:54:59;3.35;;;2.40;;
17253;SDS011;32542;52.832;13.816;2023-07-22T07:58:02;3.63;;;2.05;;
17253;SDS011;32542;52.832;13.816;2023-07-22T08:01:06;2.63;;;2.10;;
17253;SDS011;32542;52.832;13.816;2023-07-22T08:04:10;4.88;;;2.22;;
17253;SDS011;32542;52.832;13.816;2023-07-22T08:07:14;3.90;;;2.35;;
17253;SDS011;32542;52.832;13.816;2023-07-22T08:10:18;3.63;;;2.72;;
17253;SDS011;32542;52.832;13.816;2023-07-22T08:13:21;4.82;;;2.65;;
17253;SDS011;32542;52.832;13.816;2023-07-22T08:16:25;4.10;;;2.60;;
17253;SDS011;32542;52.832;13.816;2023-07-22T08:19:29;4.28;;;2.63;;
17253;SDS011;32542;52.832;13.816;2023-07-22T08:22:32;3.22;;;2.25;;
17253;SDS011;32542;52.832;13.816;2023-07-22T08:25:35;3.85;;;2.70;;
17253;SDS011;32542;52.832;13.816;2023-07-22T08:28:38;3.88;;;2.60;;
17253;SDS011;32542;52.832;13.816;2023-07-22T08:31:42;2.95;;;2.55;;
17253;SDS011;32542;52.832;13.816;2023-07-22T08:34:45;4.53;;;2.67;;
17253;SDS011;32542;52.832;13.816;2023-07-22T08:37:48;3.80;;;2.70;;
17253;SDS011;32542;52.832;13.816;2023-07-22T08:40:51;4.50;;;2.40;;
17253;SDS011;32542;52.832;13.816;2023-07-22T08:43:54;4.60;;;2.78;;
17253;SDS011;32542;52.832;13.816;2023-07-22T08:47:03;4.18;;;2.50;;
17253;SDS011;32542;52.832;13.816;2023-07-22T08:50:10;5.03;;;2.88;;
17253;SDS011;32542;52.832;13.816;2023-07-22T08:53:13;3.47;;;2.45;;
17253;SDS011;32542;52.832;13.816;2023-07-22T08:56:17;4.07;;;2.78;;
17253;SDS011;32542;52.832;13.816;2023-07-22T08:59:21;4.88;;;2.85;;
17253;SDS011;32542;52.832;13.816;2023-07-22T09:02:26;5.65;;;3.35;;
17253;SDS011;32542;52.832;13.816;2023-07-22T09:05:29;5.00;;;2.63;;
17253;SDS011;32542;52.832;13.816;2023-07-22T09:08:34;3.28;;;2.50;;
17253;SDS011;32542;52.832;13.816;2023-07-22T09:11:37;4.50;;;2.83;;
17253;SDS011;32542;52.832;13.816;2023-07-22T09:14:40;4.47;;;2.72;;
17253;SDS011;32542;52.832;13.816;2023-07-22T09:17:46;4.93;;;2.80;;
17253;SDS011;32542;52.832;13.816;2023-07-22T09:20:50;3.95;;;2.85;;
17253;SDS011;32542;52.832;13.816;2023-07-22T09:23:53;4.13;;;3.05;;
17253;SDS011;32542;52.832;13.816;2023-07-22T09:26:57;4.55;;;2.90;;
17253;SDS011;32542;52.832;13.816;2023-07-22T09:30:02;3.60;;;2.83;;
17253;SDS011;32542;52.832;13.816;2023-07-22T09:33:08;4.90;;;3.03;;
17253;SDS011;32542;52.832;13.816;2023-07-22T09:36:23;4.63;;;3.05;;
17253;SDS011;32542;52.832;13.816;2023-07-22T09:39:26;4.53;;;2.80;;
17253;SDS011;32542;52.832;13.816;2023-07-22T09:42:29;3.75;;;2.67;;
17253;SDS011;32542;52.832;13.816;2023-07-22T09:45:32;7.07;;;2.83;;
17253;SDS011;32542;52.832;13.816;2023-07-22T09:48:43;4.28;;;2.70;;
17253;SDS011;32542;52.832;13.816;2023-07-22T09:51:47;3.65;;;2.85;;
17253;SDS011;32542;52.832;13.816;2023-07-22T09:55:03;66.75;;;15.32;;
17253;SDS011;32542;52.832;13.816;2023-07-22T09:58:06;61.83;;;14.98;;
17253;SDS011;32542;52.832;13.816;2023-07-22T10:01:10;50.05;;;12.18;;
17253;SDS011;32542;52.832;13.816;2023-07-22T10:04:17;38.10;;;9.57;;
17253;SDS011;32542;52.832;13.816;2023-07-22T10:07:23;18.75;;;6.43;;
17253;SDS011;32542;52.832;13.816;2023-07-22T10:10:32;19.45;;;6.05;;
17253;SDS011;32542;52.832;13.816;2023-07-22T10:13:37;27.10;;;7.05;;
17253;SDS011;32542;52.832;13.816;2023-07-22T10:16:41;31.17;;;7.15;;
17253;SDS011;32542;52.832;13.816;2023-07-22T10:19:46;22.55;;;7.03;;
17253;SDS011;32542;52.832;13.816;2023-07-22T10:22:49;25.98;;;6.43;;
17253;SDS011;32542;52.832;13.816;2023-07-22T10:25:53;18.77;;;6.45;;
17253;SDS011;32542;52.832;13.816;2023-07-22T10:28:56;20.60;;;6.07;;
17253;SDS011;32542;52.832;13.816;2023-07-22T10:32:00;14.98;;;5.55;;
17253;SDS011;32542;52.832;13.816;2023-07-22T10:35:07;13.68;;;5.78;;
17253;SDS011;32542;52.832;13.816;2023-07-22T10:38:11;21.60;;;5.80;;
17253;SDS011;32542;52.832;13.816;2023-07-22T10:41:15;11.43;;;5.40;;
17253;SDS011;32542;52.832;13.816;2023-07-22T10:44:19;9.85;;;5.22;;
17253;SDS011;32542;52.832;13.816;2023-07-22T10:47:31;16.80;;;5.13;;
17253;SDS011;32542;52.832;13.816;2023-07-22T10:50:43;13.55;;;5.75;;
17253;SDS011;32542;52.832;13.816;2023-07-22T10:53:48;16.10;;;5.53;;
17253;SDS011;32542;52.832;13.816;2023-07-22T10:56:52;15.10;;;4.75;;
17253;SDS011;32542;52.832;13.816;2023-07-22T10:59:59;11.50;;;4.32;;
17253;SDS011;32542;52.832;13.816;2023-07-22T11:03:11;13.77;;;4.32;;
17253;SDS011;32542;52.832;13.816;2023-07-22T11:06:16;8.18;;;3.92;;
17253;SDS011;32542;52.832;13.816;2023-07-22T11:09:39;10.25;;;3.80;;
17253;SDS011;32542;52.832;13.816;2023-07-22T11:12:43;9.15;;;3.72;;
17253;SDS011;32542;52.832;13.816;2023-07-22T11:15:47;9.43;;;3.67;;
17253;SDS011;32542;52.832;13.816;2023-07-22T11:18:50;9.20;;;3.22;;
17253;SDS011;32542;52.832;13.816;2023-07-22T11:21:55;12.38;;;3.60;;
17253;SDS011;32542;52.832;13.816;2023-07-22T11:24:58;6.40;;;2.90;;
17253;SDS011;32542;52.832;13.816;2023-07-22T11:28:02;7.47;;;3.17;;
17253;SDS011;32542;52.832;13.816;2023-07-22T11:31:06;6.63;;;2.92;;
17253;SDS011;32542;52.832;13.816;2023-07-22T11:34:09;5.18;;;2.60;;
17253;SDS011;32542;52.832;13.816;2023-07-22T11:37:14;6.28;;;2.88;;
17253;SDS011;32542;52.832;13.816;2023-07-22T11:40:18;4.47;;;2.42;;
17253;SDS011;32542;52.832;13.816;2023-07-22T11:43:21;6.90;;;2.65;;
17253;SDS011;32542;52.832;13.816;2023-07-22T11:46:24;7.28;;;2.42;;
17253;SDS011;32542;52.832;13.816;2023-07-22T11:49:28;5.30;;;2.42;;
17253;SDS011;32542;52.832;13.816;2023-07-22T11:52:33;5.45;;;2.78;;
17253;SDS011;32542;52.832;13.816;2023-07-22T11:55:36;5.70;;;2.80;;
17253;SDS011;32542;52.832;13.816;2023-07-22T11:58:43;4.70;;;2.25;;
17253;SDS011;32542;52.832;13.816;2023-07-22T12:01:52;4.10;;;2.17;;
17253;SDS011;32542;52.832;13.816;2023-07-22T12:04:56;7.25;;;2.22;;
17253;SDS011;32542;52.832;13.816;2023-07-22T12:08:02;5.03;;;2.10;;
17253;SDS011;32542;52.832;13.816;2023-07-22T12:11:07;6.68;;;2.28;;
17253;SDS011;32542;52.832;13.816;2023-07-22T12:14:11;4.20;;;2.15;;
17253;SDS011;32542;52.832;13.816;2023-07-22T12:17:16;3.45;;;2.10;;
17253;SDS011;32542;52.832;13.816;2023-07-22T12:20:19;3.65;;;2.05;;
17253;SDS011;32542;52.832;13.816;2023-07-22T12:23:27;3.80;;;2.08;;
17253;SDS011;32542;52.832;13.816;2023-07-22T12:26:30;3.70;;;1.83;;
17253;SDS011;32542;52.832;13.816;2023-07-22T12:29:33;3.25;;;1.70;;
17253;SDS011;32542;52.832;13.816;2023-07-22T12:32:36;6.55;;;2.10;;
17253;SDS011;32542;52.832;13.816;2023-07-22T12:35:39;3.35;;;2.08;;
17253;SDS011;32542;52.832;13.816;2023-07-22T12:38:43;2.78;;;1.75;;
17253;SDS011;32542;52.832;13.816;2023-07-22T12:41:46;5.68;;;1.92;;
17253;SDS011;32542;52.832;13.816;2023-07-22T12:44:49;3.78;;;2.05;;
17253;SDS011;32542;52.832;13.816;2023-07-22T12:47:52;3.28;;;1.88;;
17253;SDS011;32542;52.832;13.816;2023-07-22T12:50:55;8.00;;;1.95;;
17253;SDS011;32542;52.832;13.816;2023-07-22T12:53:59;4.28;;;1.63;;
17253;SDS011;32542;52.832;13.816;2023-07-22T12:57:02;6.90;;;2.17;;
17253;SDS011;32542;52.832;13.816;2023-07-22T13:00:06;4.20;;;2.00;;
17253;SDS011;32542;52.832;13.816;2023-07-22T13:03:12;3.42;;;1.70;;
17253;SDS011;32542;52.832;13.816;2023-07-22T13:06:15;6.60;;;1.65;;
17253;SDS011;32542;52.832;13.816;2023-07-22T13:09:19;3.25;;;1.70;;
17253;SDS011;32542;52.832;13.816;2023-07-22T13:12:22;4.40;;;1.63;;
17253;SDS011;32542;52.832;13.816;2023-07-22T13:15:25;4.72;;;1.70;;
17253;SDS011;32542;52.832;13.816;2023-07-22T13:18:28;5.55;;;2.30;;
17253;SDS011;32542;52.832;13.816;2023-07-22T13:21:31;4.80;;;1.60;;
17253;SDS011;32542;52.832;13.816;2023-07-22T13:24:35;3.97;;;1.67;;
17253;SDS011;32542;52.832;13.816;2023-07-22T13:27:38;4.95;;;1.77;;
17253;SDS011;32542;52.832;13.816;2023-07-22T13:30:42;3.92;;;1.73;;
17253;SDS011;32542;52.832;13.816;2023-07-22T13:33:44;6.43;;;1.80;;
17253;SDS011;32542;52.832;13.816;2023-07-22T13:36:47;4.15;;;2.25;;
17253;SDS011;32542;52.832;13.816;2023-07-22T13:39:52;2.92;;;1.80;;
17253;SDS011;32542;52.832;13.816;2023-07-22T13:42:56;5.75;;;1.80;;
17253;SDS011;32542;52.832;13.816;2023-07-22T13:45:59;2.72;;;1.92;;
17253;SDS011;32542;52.832;13.816;2023-07-22T13:49:02;3.88;;;1.60;;
17253;SDS011;32542;52.832;13.816;2023-07-22T13:52:05;3.53;;;1.85;;
17253;SDS011;32542;52.832;13.816;2023-07-22T13:55:09;4.70;;;1.73;;
17253;SDS011;32542;52.832;13.816;2023-07-22T13:58:12;4.57;;;2.13;;
17253;SDS011;32542;52.832;13.816;2023-07-22T14:01:15;3.28;;;1.85;;
17253;SDS011;32542;52.832;13.816;2023-07-22T14:04:19;2.30;;;1.63;;
17253;SDS011;32542;52.832;13.816;2023-07-22T14:07:21;2.95;;;1.80;;
17253;SDS011;32542;52.832;13.816;2023-07-22T14:10:26;3.78;;;1.80;;
17253;SDS011;32542;52.832;13.816;2023-07-22T14:13:29;7.60;;;2.58;;
17253;SDS011;32542;52.832;13.816;2023-07-22T14:16:31;7.50;;;1.98;;
17253;SDS011;32542;52.832;13.816;2023-07-22T14:19:35;7.20;;;2.00;;
17253;SDS011;32542;52.832;13.816;2023-07-22T14:22:38;8.13;;;2.17;;
17253;SDS011;32542;52.832;13.816;2023-07-22T14:25:42;8.07;;;2.05;;
17253;SDS011;32542;52.832;13.816;2023-07-22T14:28:45;5.97;;;2.10;;
17253;SDS011;32542;52.832;13.816;2023-07-22T14:31:47;8.20;;;2.25;;
17253;SDS011;32542;52.832;13.816;2023-07-22T14:34:50;4.70;;;1.90;;
17253;SDS011;32542;52.832;13.816;2023-07-22T14:37:53;6.75;;;2.10;;
17253;SDS011;32542;52.832;13.816;2023-07-22T14:40:59;5.35;;;2.47;;
17253;SDS011;32542;52.832;13.816;2023-07-22T14:44:01;4.72;;;2.28;;
17253;SDS011;32542;52.832;13.816;2023-07-22T14:47:05;4.55;;;2.20;;
17253;SDS011;32542;52.832;13.816;2023-07-22T14:50:08;2.72;;;2.20;;
17253;SDS011;32542;52.832;13.816;2023-07-22T14:53:11;6.60;;;2.40;;
17253;SDS011;32542;52.832;13.816;2023-07-22T14:56:16;8.48;;;3.10;;
17253;SDS011;32542;52.832;13.816;2023-07-22T14:59:18;6.00;;;2.50;;
17253;SDS011;32542;52.832;13.816;2023-07-22T15:02:21;6.90;;;2.85;;
17253;SDS011;32542;52.832;13.816;2023-07-22T15:05:25;4.30;;;2.67;;
17253;SDS011;32542;52.832;13.816;2023-07-22T15:08:27;4.65;;;2.30;;
17253;SDS011;32542;52.832;13.816;2023-07-22T15:11:32;4.68;;;2.70;;
17253;SDS011;32542;52.832;13.816;2023-07-22T15:14:36;10.30;;;2.67;;
17253;SDS011;32542;52.832;13.816;2023-07-22T15:17:39;11.10;;;2.97;;
17253;SDS011;32542;52.832;13.816;2023-07-22T15:20:42;8.43;;;3.03;;
17253;SDS011;32542;52.832;13.816;2023-07-22T15:23:45;4.30;;;2.50;;
17253;SDS011;32542;52.832;13.816;2023-07-22T15:26:49;5.50;;;2.95;;
17253;SDS011;32542;52.832;13.816;2023-07-22T15:29:52;5.20;;;2.72;;
17253;SDS011;32542;52.832;13.816;2023-07-22T15:32:55;5.28;;;3.00;;
17253;SDS011;32542;52.832;13.816;2023-07-22T15:35:58;3.85;;;2.60;;
17253;SDS011;32542;52.832;13.816;2023-07-22T15:39:01;7.22;;;3.53;;
17253;SDS011;32542;52.832;13.816;2023-07-22T15:42:06;46.67;;;19.67;;
17253;SDS011;32542;52.832;13.816;2023-07-22T15:45:09;12.45;;;5.13;;
17253;SDS011;32542;52.832;13.816;2023-07-22T15:48:12;14.85;;;5.15;;
17253;SDS011;32542;52.832;13.816;2023-07-22T15:51:15;7.00;;;4.20;;
17253;SDS011;32542;52.832;13.816;2023-07-22T15:54:18;9.07;;;3.42;;
17253;SDS011;32542;52.832;13.816;2023-07-22T15:57:22;9.98;;;4.22;;
17253;SDS011;32542;52.832;13.816;2023-07-22T16:00:26;5.68;;;3.45;;
17253;SDS011;32542;52.832;13.816;2023-07-22T16:03:29;5.53;;;3.28;;
17253;SDS011;32542;52.832;13.816;2023-07-22T16:06:32;4.75;;;3.35;;
17253;SDS011;32542;52.832;13.816;2023-07-22T16:09:35;7.15;;;3.70;;
17253;SDS011;32542;52.832;13.816;2023-07-22T16:12:39;6.10;;;3.83;;
17253;SDS011;32542;52.832;13.816;2023-07-22T16:15:42;4.30;;;3.30;;
17253;SDS011;32542;52.832;13.816;2023-07-22T16:18:45;7.60;;;3.28;;
17253;SDS011;32542;52.832;13.816;2023-07-22T16:21:48;5.90;;;3.10;;
17253;SDS011;32542;52.832;13.816;2023-07-22T16:24:51;7.85;;;3.40;;
17253;SDS011;32542;52.832;13.816;2023-07-22T16:27:56;5.80;;;2.92;;
17253;SDS011;32542;52.832;13.816;2023-07-22T16:30:58;5.70;;;3.38;;
17253;SDS011;32542;52.832;13.816;2023-07-22T16:34:01;6.00;;;3.45;;
17253;SDS011;32542;52.832;13.816;2023-07-22T16:37:04;4.18;;;3.35;;
17253;SDS011;32542;52.832;13.816;2023-07-22T16:40:08;4.18;;;3.10;;
17253;SDS011;32542;52.832;13.816;2023-07-22T16:43:13;8.27;;;3.28;;
17253;SDS011;32542;52.832;13.816;2023-07-22T16:46:16;6.25;;;3.47;;
17253;SDS011;32542;52.832;13.816;2023-07-22T16:49:19;6.32;;;3.92;;
17253;SDS011;32542;52.832;13.816;2023-07-22T16:52:22;11.15;;;4.00;;
17253;SDS011;32542;52.832;13.816;2023-07-22T16:55:25;6.38;;;3.72;;
17253;SDS011;32542;52.832;13.816;2023-07-22T16:58:30;10.00;;;3.97;;
17253;SDS011;32542;52.832;13.816;2023-07-22T17:01:32;12.35;;;3.80;;
17253;SDS011;32542;52.832;13.816;2023-07-22T17:04:35;7.13;;;3.30;;
17253;SDS011;32542;52.832;13.816;2023-07-22T17:07:38;7.90;;;3.30;;
17253;SDS011;32542;52.832;13.816;2023-07-22T17:10:43;9.07;;;3.65;;
17253;SDS011;32542;52.832;13.816;2023-07-22T17:13:47;9.13;;;3.55;;
17253;SDS011;32542;52.832;13.816;2023-07-22T17:16:51;6.78;;;4.05;;
17253;SDS011;32542;52.832;13.816;2023-07-22T17:19:54;5.38;;;3.33;;
17253;SDS011;32542;52.832;13.816;2023-07-22T17:22:56;4.85;;;3.13;;
17253;SDS011;32542;52.832;13.816;2023-07-22T17:25:59;5.97;;;3.70;;
17253;SDS011;32542;52.832;13.816;2023-07-22T17:29:04;7.05;;;3.45;;
17253;SDS011;32542;52.832;13.816;2023-07-22T17:32:07;10.30;;;3.47;;
17253;SDS011;32542;52.832;13.816;2023-07-22T17:35:10;7.28;;;3.45;;
17253;SDS011;32542;52.832;13.816;2023-07-22T17:38:13;5.07;;;3.80;;
17253;SDS011;32542;52.832;13.816;2023-07-22T17:41:16;7.40;;;3.55;;
17253;SDS011;32542;52.832;13.816;2023-07-22T17:44:21;7.35;;;3.50;;
17253;SDS011;32542;52.832;13.816;2023-07-22T17:47:24;8.23;;;3.95;;
17253;SDS011;32542;52.832;13.816;2023-07-22T17:50:26;10.82;;;3.90;;
17253;SDS011;32542;52.832;13.816;2023-07-22T17:53:29;6.82;;;3.78;;
17253;SDS011;32542;52.832;13.816;2023-07-22T17:56:32;5.00;;;3.20;;
17253;SDS011;32542;52.832;13.816;2023-07-22T17:59:39;11.25;;;3.67;;
17253;SDS011;32542;52.832;13.816;2023-07-22T18:02:42;9.43;;;3.55;;
17253;SDS011;32542;52.832;13.816;2023-07-22T18:05:46;7.32;;;3.22;;
17253;SDS011;32542;52.832;13.816;2023-07-22T18:08:49;8.73;;;3.20;;
17253;SDS011;32542;52.832;13.816;2023-07-22T18:11:52;7.90;;;3.58;;